sensor_id;sensor_type;location;lat;lon;timestamp;P1;durP1;ratioP1;P2;durP2;ratioP2
15952;SDS011;8075;47.766;8.846;2023-07-13T00:02:06;7.10;;;5.45;;
15952;SDS011;8075;47.766;8.846;2023-07-13T00:04:32;7.85;;;5.90;;
15952;SDS011;8075;47.766;8.846;2023-07-13T00:06:58;6.95;;;5.45;;
15952;SDS011;8075;47.766;8.846;2023-07-13T00:09:25;4.90;;;4.50;;
15952;SDS011;8075;47.766;8.846;2023-07-13T00:11:52;6.72;;;5.25;;
15952;SDS011;8075;47.766;8.846;2023-07-13T00:14:18;6.45;;;4.85;;
15952;SDS011;8075;47.766;8.846;2023-07-13T00:16:44;6.22;;;4.63;;
15952;SDS011;8075;47.766;8.846;2023-07-13T00:19:11;6.00;;;4.90;;
15952;SDS011;8075;47.766;8.846;2023-07-13T00:21:38;4.95;;;4.20;;
15952;SDS011;8075;47.766;8.846;2023-07-13T00:24:05;6.13;;;4.40;;
15952;SDS011;8075;47.766;8.846;2023-07-13T00:26:31;6.20;;;4.33;;
15952;SDS011;8075;47.766;8.846;2023-07-13T00:28:58;4.85;;;4.40;;
15952;SDS011;8075;47.766;8.846;2023-07-13T00:31:24;4.70;;;4.28;;
15952;SDS011;8075;47.766;8.846;2023-07-13T00:33:50;4.50;;;4.10;;
15952;SDS011;8075;47.766;8.846;2023-07-13T00:36:16;4.95;;;4.15;;
15952;SDS011;8075;47.766;8.846;2023-07-13T00:38:43;4.60;;;3.85;;
15952;SDS011;8075;47.766;8.846;2023-07-13T00:41:09;5.40;;;4.00;;
15952;SDS011;8075;47.766;8.846;2023-07-13T00:43:35;5.28;;;4.10;;
15952;SDS011;8075;47.766;8.846;2023-07-13T00:48:29;4.47;;;3.78;;
15952;SDS011;8075;47.766;8.846;2023-07-13T00:50:56;5.47;;;3.60;;
15952;SDS011;8075;47.766;8.846;2023-07-13T00:53:24;4.00;;;3.40;;
15952;SDS011;8075;47.766;8.846;2023-07-13T00:55:51;3.77;;;3.47;;
15952;SDS011;8075;47.766;8.846;2023-07-13T00:58:19;4.13;;;3.20;;
15952;SDS011;8075;47.766;8.846;2023-07-13T01:00:45;3.67;;;3.28;;
15952;SDS011;8075;47.766;8.846;2023-07-13T01:03:12;4.07;;;3.42;;
15952;SDS011;8075;47.766;8.846;2023-07-13T01:05:38;4.05;;;3.00;;
15952;SDS011;8075;47.766;8.846;2023-07-13T01:08:06;3.70;;;3.13;;
15952;SDS011;8075;47.766;8.846;2023-07-13T01:10:32;5.43;;;3.30;;
15952;SDS011;8075;47.766;8.846;2023-07-13T01:13:03;3.40;;;2.95;;
15952;SDS011;8075;47.766;8.846;2023-07-13T01:15:37;4.35;;;3.15;;
15952;SDS011;8075;47.766;8.846;2023-07-13T01:18:05;3.33;;;3.03;;
15952;SDS011;8075;47.766;8.846;2023-07-13T01:20:31;3.88;;;3.47;;
15952;SDS011;8075;47.766;8.846;2023-07-13T01:23:03;3.42;;;3.13;;
15952;SDS011;8075;47.766;8.846;2023-07-13T01:25:29;3.65;;;3.35;;
15952;SDS011;8075;47.766;8.846;2023-07-13T01:27:55;4.47;;;3.58;;
15952;SDS011;8075;47.766;8.846;2023-07-13T01:30:21;3.75;;;3.45;;
15952;SDS011;8075;47.766;8.846;2023-07-13T01:32:47;4.60;;;3.20;;
15952;SDS011;8075;47.766;8.846;2023-07-13T01:35:13;4.88;;;3.97;;
15952;SDS011;8075;47.766;8.846;2023-07-13T01:37:39;6.05;;;4.00;;
15952;SDS011;8075;47.766;8.846;2023-07-13T01:40:05;5.75;;;4.80;;
15952;SDS011;8075;47.766;8.846;2023-07-13T01:42:33;5.60;;;4.03;;
15952;SDS011;8075;47.766;8.846;2023-07-13T01:44:59;4.17;;;3.77;;
15952;SDS011;8075;47.766;8.846;2023-07-13T01:47:25;6.80;;;4.17;;
15952;SDS011;8075;47.766;8.846;2023-07-13T01:49:52;5.75;;;4.38;;
15952;SDS011;8075;47.766;8.846;2023-07-13T01:52:18;4.72;;;3.92;;
15952;SDS011;8075;47.766;8.846;2023-07-13T01:54:44;4.90;;;4.35;;
15952;SDS011;8075;47.766;8.846;2023-07-13T01:57:10;7.30;;;5.30;;
15952;SDS011;8075;47.766;8.846;2023-07-13T01:59:36;6.78;;;5.97;;
15952;SDS011;8075;47.766;8.846;2023-07-13T02:02:02;6.78;;;6.07;;
15952;SDS011;8075;47.766;8.846;2023-07-13T02:04:28;6.65;;;6.00;;
15952;SDS011;8075;47.766;8.846;2023-07-13T02:06:54;5.22;;;4.80;;
15952;SDS011;8075;47.766;8.846;2023-07-13T02:09:20;5.32;;;4.82;;
15952;SDS011;8075;47.766;8.846;2023-07-13T02:11:47;5.15;;;4.50;;
15952;SDS011;8075;47.766;8.846;2023-07-13T02:14:13;4.63;;;3.58;;
15952;SDS011;8075;47.766;8.846;2023-07-13T02:16:40;4.40;;;4.00;;
15952;SDS011;8075;47.766;8.846;2023-07-13T02:19:06;5.20;;;4.00;;
15952;SDS011;8075;47.766;8.846;2023-07-13T02:21:32;5.35;;;3.70;;
15952;SDS011;8075;47.766;8.846;2023-07-13T02:23:58;4.15;;;3.75;;
15952;SDS011;8075;47.766;8.846;2023-07-13T02:26:25;5.93;;;4.05;;
15952;SDS011;8075;47.766;8.846;2023-07-13T02:28:51;6.25;;;4.28;;
15952;SDS011;8075;47.766;8.846;2023-07-13T02:31:17;5.63;;;4.37;;
15952;SDS011;8075;47.766;8.846;2023-07-13T02:33:43;6.30;;;5.10;;
15952;SDS011;8075;47.766;8.846;2023-07-13T02:36:10;6.28;;;5.10;;
15952;SDS011;8075;47.766;8.846;2023-07-13T02:38:36;5.63;;;5.00;;
15952;SDS011;8075;47.766;8.846;2023-07-13T02:41:03;6.83;;;5.93;;
15952;SDS011;8075;47.766;8.846;2023-07-13T02:43:29;6.80;;;5.78;;
15952;SDS011;8075;47.766;8.846;2023-07-13T02:45:55;5.43;;;4.93;;
15952;SDS011;8075;47.766;8.846;2023-07-13T02:48:25;5.43;;;4.93;;
15952;SDS011;8075;47.766;8.846;2023-07-13T02:50:51;5.40;;;4.90;;
15952;SDS011;8075;47.766;8.846;2023-07-13T02:53:17;5.35;;;4.70;;
15952;SDS011;8075;47.766;8.846;2023-07-13T02:55:43;5.03;;;4.53;;
15952;SDS011;8075;47.766;8.846;2023-07-13T02:58:12;5.82;;;4.60;;
15952;SDS011;8075;47.766;8.846;2023-07-13T03:00:41;5.15;;;4.22;;
15952;SDS011;8075;47.766;8.846;2023-07-13T03:03:07;4.25;;;3.70;;
15952;SDS011;8075;47.766;8.846;2023-07-13T03:05:33;5.10;;;4.00;;
15952;SDS011;8075;47.766;8.846;2023-07-13T03:07:59;4.40;;;3.67;;
15952;SDS011;8075;47.766;8.846;2023-07-13T03:10:25;3.83;;;3.40;;
15952;SDS011;8075;47.766;8.846;2023-07-13T03:12:51;5.28;;;3.60;;
15952;SDS011;8075;47.766;8.846;2023-07-13T03:15:17;3.90;;;3.50;;
15952;SDS011;8075;47.766;8.846;2023-07-13T03:17:43;7.60;;;3.95;;
15952;SDS011;8075;47.766;8.846;2023-07-13T03:20:09;4.45;;;3.20;;
15952;SDS011;8075;47.766;8.846;2023-07-13T03:22:35;3.55;;;3.25;;
15952;SDS011;8075;47.766;8.846;2023-07-13T03:25:01;7.13;;;3.92;;
15952;SDS011;8075;47.766;8.846;2023-07-13T03:27:27;4.25;;;3.80;;
15952;SDS011;8075;47.766;8.846;2023-07-13T03:29:53;5.70;;;3.70;;
15952;SDS011;8075;47.766;8.846;2023-07-13T03:32:19;3.65;;;3.35;;
15952;SDS011;8075;47.766;8.846;2023-07-13T03:34:45;3.40;;;3.10;;
15952;SDS011;8075;47.766;8.846;2023-07-13T03:37:11;6.40;;;3.83;;
15952;SDS011;8075;47.766;8.846;2023-07-13T03:39:37;4.35;;;3.15;;
15952;SDS011;8075;47.766;8.846;2023-07-13T03:42:03;3.97;;;3.60;;
15952;SDS011;8075;47.766;8.846;2023-07-13T03:44:29;4.18;;;3.30;;
15952;SDS011;8075;47.766;8.846;2023-07-13T03:46:55;3.97;;;3.23;;
15952;SDS011;8075;47.766;8.846;2023-07-13T03:49:21;5.47;;;3.90;;
15952;SDS011;8075;47.766;8.846;2023-07-13T03:51:47;4.45;;;3.78;;
15952;SDS011;8075;47.766;8.846;2023-07-13T03:54:13;4.68;;;3.95;;
15952;SDS011;8075;47.766;8.846;2023-07-13T03:56:39;4.00;;;3.60;;
15952;SDS011;8075;47.766;8.846;2023-07-13T03:59:05;4.53;;;3.85;;
15952;SDS011;8075;47.766;8.846;2023-07-13T04:01:31;3.80;;;3.40;;
15952;SDS011;8075;47.766;8.846;2023-07-13T04:03:57;4.35;;;3.50;;
15952;SDS011;8075;47.766;8.846;2023-07-13T04:06:27;4.55;;;4.15;;
15952;SDS011;8075;47.766;8.846;2023-07-13T04:08:55;4.97;;;3.60;;
15952;SDS011;8075;47.766;8.846;2023-07-13T04:11:22;4.13;;;3.70;;
15952;SDS011;8075;47.766;8.846;2023-07-13T04:13:49;3.75;;;3.05;;
15952;SDS011;8075;47.766;8.846;2023-07-13T04:16:15;5.20;;;4.20;;
15952;SDS011;8075;47.766;8.846;2023-07-13T04:18:42;6.18;;;4.22;;
15952;SDS011;8075;47.766;8.846;2023-07-13T04:21:08;4.60;;;4.15;;
15952;SDS011;8075;47.766;8.846;2023-07-13T04:23:35;4.90;;;4.20;;
15952;SDS011;8075;47.766;8.846;2023-07-13T04:26:01;5.75;;;3.75;;
15952;SDS011;8075;47.766;8.846;2023-07-13T04:28:27;4.93;;;3.60;;
15952;SDS011;8075;47.766;8.846;2023-07-13T04:30:53;5.50;;;3.70;;
15952;SDS011;8075;47.766;8.846;2023-07-13T04:33:20;4.40;;;3.30;;
15952;SDS011;8075;47.766;8.846;2023-07-13T04:35:47;4.55;;;3.60;;
15952;SDS011;8075;47.766;8.846;2023-07-13T04:38:13;3.95;;;3.55;;
15952;SDS011;8075;47.766;8.846;2023-07-13T04:40:42;4.80;;;3.50;;
15952;SDS011;8075;47.766;8.846;2023-07-13T04:43:08;3.90;;;3.22;;
15952;SDS011;8075;47.766;8.846;2023-07-13T04:45:34;3.60;;;3.13;;
15952;SDS011;8075;47.766;8.846;2023-07-13T04:48:01;3.78;;;3.35;;
15952;SDS011;8075;47.766;8.846;2023-07-13T04:50:27;4.05;;;3.30;;
15952;SDS011;8075;47.766;8.846;2023-07-13T04:52:53;4.85;;;3.53;;
15952;SDS011;8075;47.766;8.846;2023-07-13T04:55:19;5.43;;;3.47;;
15952;SDS011;8075;47.766;8.846;2023-07-13T04:57:45;3.90;;;3.60;;
15952;SDS011;8075;47.766;8.846;2023-07-13T05:00:11;4.18;;;3.28;;
15952;SDS011;8075;47.766;8.846;2023-07-13T05:02:38;4.00;;;3.60;;
15952;SDS011;8075;47.766;8.846;2023-07-13T05:05:05;4.93;;;3.70;;
15952;SDS011;8075;47.766;8.846;2023-07-13T05:07:31;5.40;;;4.90;;
15952;SDS011;8075;47.766;8.846;2023-07-13T05:09:58;7.10;;;4.68;;
15952;SDS011;8075;47.766;8.846;2023-07-13T05:12:24;5.85;;;5.30;;
15952;SDS011;8075;47.766;8.846;2023-07-13T05:14:50;6.15;;;5.13;;
15952;SDS011;8075;47.766;8.846;2023-07-13T05:17:16;7.03;;;5.55;;
15952;SDS011;8075;47.766;8.846;2023-07-13T05:19:42;5.45;;;4.80;;
15952;SDS011;8075;47.766;8.846;2023-07-13T05:22:08;5.70;;;4.80;;
15952;SDS011;8075;47.766;8.846;2023-07-13T05:24:35;4.97;;;4.47;;
15952;SDS011;8075;47.766;8.846;2023-07-13T05:27:01;4.75;;;4.25;;
15952;SDS011;8075;47.766;8.846;2023-07-13T05:29:27;5.88;;;4.90;;
15952;SDS011;8075;47.766;8.846;2023-07-13T05:31:53;5.70;;;5.10;;
15952;SDS011;8075;47.766;8.846;2023-07-13T05:34:19;7.45;;;5.30;;
15952;SDS011;8075;47.766;8.846;2023-07-13T05:36:45;6.13;;;5.50;;
15952;SDS011;8075;47.766;8.846;2023-07-13T05:39:11;6.90;;;5.72;;
15952;SDS011;8075;47.766;8.846;2023-07-13T05:41:37;7.82;;;5.60;;
15952;SDS011;8075;47.766;8.846;2023-07-13T05:44:03;8.27;;;6.07;;
15952;SDS011;8075;47.766;8.846;2023-07-13T05:46:29;7.00;;;5.80;;
15952;SDS011;8075;47.766;8.846;2023-07-13T05:48:55;7.93;;;6.22;;
15952;SDS011;8075;47.766;8.846;2023-07-13T05:51:22;6.85;;;5.38;;
15952;SDS011;8075;47.766;8.846;2023-07-13T05:53:48;5.10;;;4.70;;
15952;SDS011;8075;47.766;8.846;2023-07-13T05:56:14;5.63;;;4.80;;
15952;SDS011;8075;47.766;8.846;2023-07-13T05:58:40;7.20;;;4.63;;
15952;SDS011;8075;47.766;8.846;2023-07-13T06:01:09;6.28;;;4.65;;
15952;SDS011;8075;47.766;8.846;2023-07-13T06:03:35;4.90;;;4.03;;
15952;SDS011;8075;47.766;8.846;2023-07-13T06:06:04;5.72;;;4.38;;
15952;SDS011;8075;47.766;8.846;2023-07-13T06:08:30;7.20;;;4.57;;
15952;SDS011;8075;47.766;8.846;2023-07-13T06:11:30;5.10;;;4.13;;
15952;SDS011;8075;47.766;8.846;2023-07-13T06:13:49;4.63;;;3.92;;
15952;SDS011;8075;47.766;8.846;2023-07-13T06:16:15;3.40;;;3.10;;
15952;SDS011;8075;47.766;8.846;2023-07-13T06:18:42;5.70;;;3.72;;
15952;SDS011;8075;47.766;8.846;2023-07-13T06:21:15;3.75;;;3.00;;
15952;SDS011;8075;47.766;8.846;2023-07-13T06:23:42;3.50;;;3.03;;
15952;SDS011;8075;47.766;8.846;2023-07-13T06:26:08;3.60;;;2.70;;
15952;SDS011;8075;47.766;8.846;2023-07-13T06:28:35;4.32;;;2.60;;
15952;SDS011;8075;47.766;8.846;2023-07-13T06:31:01;4.25;;;2.85;;
15952;SDS011;8075;47.766;8.846;2023-07-13T06:33:27;3.42;;;2.58;;
15952;SDS011;8075;47.766;8.846;2023-07-13T06:35:53;3.78;;;2.38;;
15952;SDS011;8075;47.766;8.846;2023-07-13T06:38:20;6.90;;;2.35;;
15952;SDS011;8075;47.766;8.846;2023-07-13T06:40:46;3.30;;;2.40;;
15952;SDS011;8075;47.766;8.846;2023-07-13T06:43:12;3.17;;;2.30;;
15952;SDS011;8075;47.766;8.846;2023-07-13T06:45:45;5.00;;;2.35;;
15952;SDS011;8075;47.766;8.846;2023-07-13T06:48:12;3.92;;;2.20;;
15952;SDS011;8075;47.766;8.846;2023-07-13T06:50:38;2.17;;;1.98;;
15952;SDS011;8075;47.766;8.846;2023-07-13T06:53:04;4.80;;;2.35;;
15952;SDS011;8075;47.766;8.846;2023-07-13T06:55:30;3.63;;;2.10;;
15952;SDS011;8075;47.766;8.846;2023-07-13T06:57:57;3.45;;;2.00;;
15952;SDS011;8075;47.766;8.846;2023-07-13T07:00:23;3.33;;;1.80;;
15952;SDS011;8075;47.766;8.846;2023-07-13T07:02:49;3.60;;;1.80;;
15952;SDS011;8075;47.766;8.846;2023-07-13T07:05:15;3.13;;;1.90;;
15952;SDS011;8075;47.766;8.846;2023-07-13T07:07:41;1.88;;;1.50;;
15952;SDS011;8075;47.766;8.846;2023-07-13T07:10:07;2.55;;;1.55;;
15952;SDS011;8075;47.766;8.846;2023-07-13T07:12:33;2.22;;;1.60;;
15952;SDS011;8075;47.766;8.846;2023-07-13T07:14:59;1.37;;;1.27;;
15952;SDS011;8075;47.766;8.846;2023-07-13T07:17:25;3.50;;;1.60;;
15952;SDS011;8075;47.766;8.846;2023-07-13T07:19:52;2.38;;;1.40;;
15952;SDS011;8075;47.766;8.846;2023-07-13T07:22:21;2.67;;;1.57;;
15952;SDS011;8075;47.766;8.846;2023-07-13T07:24:47;2.90;;;1.83;;
15952;SDS011;8075;47.766;8.846;2023-07-13T07:27:13;1.70;;;1.30;;
15952;SDS011;8075;47.766;8.846;2023-07-13T07:29:39;3.33;;;1.40;;
15952;SDS011;8075;47.766;8.846;2023-07-13T07:32:05;2.45;;;1.25;;
15952;SDS011;8075;47.766;8.846;2023-07-13T07:34:31;1.90;;;0.98;;
15952;SDS011;8075;47.766;8.846;2023-07-13T07:37:00;1.77;;;1.05;;
15952;SDS011;8075;47.766;8.846;2023-07-13T07:39:27;1.38;;;1.20;;
15952;SDS011;8075;47.766;8.846;2023-07-13T07:41:53;1.63;;;1.10;;
15952;SDS011;8075;47.766;8.846;2023-07-13T07:44:18;1.85;;;1.30;;
15952;SDS011;8075;47.766;8.846;2023-07-13T07:46:44;1.47;;;1.10;;
15952;SDS011;8075;47.766;8.846;2023-07-13T07:49:11;1.70;;;1.20;;
15952;SDS011;8075;47.766;8.846;2023-07-13T07:51:37;2.88;;;1.42;;
15952;SDS011;8075;47.766;8.846;2023-07-13T07:54:03;3.05;;;1.88;;
15952;SDS011;8075;47.766;8.846;2023-07-13T07:56:29;3.90;;;3.10;;
15952;SDS011;8075;47.766;8.846;2023-07-13T07:58:55;2.97;;;2.67;;
15952;SDS011;8075;47.766;8.846;2023-07-13T08:01:22;2.95;;;2.72;;
15952;SDS011;8075;47.766;8.846;2023-07-13T08:03:48;3.33;;;2.60;;
15952;SDS011;8075;47.766;8.846;2023-07-13T08:06:14;5.05;;;2.60;;
15952;SDS011;8075;47.766;8.846;2023-07-13T08:08:40;5.13;;;2.67;;
15952;SDS011;8075;47.766;8.846;2023-07-13T08:11:06;3.10;;;2.63;;
15952;SDS011;8075;47.766;8.846;2023-07-13T08:13:33;4.03;;;2.88;;
15952;SDS011;8075;47.766;8.846;2023-07-13T08:15:59;4.72;;;2.85;;
15952;SDS011;8075;47.766;8.846;2023-07-13T08:18:25;4.45;;;2.63;;
15952;SDS011;8075;47.766;8.846;2023-07-13T08:20:53;4.40;;;3.17;;
15952;SDS011;8075;47.766;8.846;2023-07-13T08:23:21;3.83;;;3.08;;
15952;SDS011;8075;47.766;8.846;2023-07-13T08:25:53;4.85;;;2.92;;
15952;SDS011;8075;47.766;8.846;2023-07-13T08:28:22;3.05;;;2.75;;
15952;SDS011;8075;47.766;8.846;2023-07-13T08:30:48;4.25;;;2.80;;
15952;SDS011;8075;47.766;8.846;2023-07-13T08:33:15;3.30;;;2.30;;
15952;SDS011;8075;47.766;8.846;2023-07-13T08:35:41;2.80;;;2.30;;
15952;SDS011;8075;47.766;8.846;2023-07-13T08:38:07;3.33;;;2.65;;
15952;SDS011;8075;47.766;8.846;2023-07-13T08:40:33;4.20;;;2.45;;
15952;SDS011;8075;47.766;8.846;2023-07-13T08:43:00;3.20;;;2.40;;
15952;SDS011;8075;47.766;8.846;2023-07-13T08:48:13;3.92;;;1.92;;
15952;SDS011;8075;47.766;8.846;2023-07-13T08:50:43;2.70;;;1.97;;
15952;SDS011;8075;47.766;8.846;2023-07-13T08:53:11;3.45;;;2.08;;
15952;SDS011;8075;47.766;8.846;2023-07-13T08:55:38;4.22;;;2.50;;
15952;SDS011;8075;47.766;8.846;2023-07-13T08:58:13;3.85;;;2.10;;
15952;SDS011;8075;47.766;8.846;2023-07-13T09:00:51;2.30;;;2.10;;
15952;SDS011;8075;47.766;8.846;2023-07-13T09:03:21;3.53;;;2.23;;
15952;SDS011;8075;47.766;8.846;2023-07-13T09:05:54;2.25;;;1.80;;
15952;SDS011;8075;47.766;8.846;2023-07-13T09:08:41;4.10;;;2.30;;
15952;SDS011;8075;47.766;8.846;2023-07-13T09:16:13;3.05;;;2.20;;
15952;SDS011;8075;47.766;8.846;2023-07-13T09:18:41;2.58;;;1.98;;
15952;SDS011;8075;47.766;8.846;2023-07-13T09:21:10;1.83;;;1.42;;
15952;SDS011;8075;47.766;8.846;2023-07-13T09:23:37;3.13;;;1.70;;
15952;SDS011;8075;47.766;8.846;2023-07-13T09:26:05;2.47;;;1.73;;
15952;SDS011;8075;47.766;8.846;2023-07-13T09:28:42;2.40;;;1.77;;
15952;SDS011;8075;47.766;8.846;2023-07-13T09:31:10;4.15;;;1.90;;
15952;SDS011;8075;47.766;8.846;2023-07-13T09:33:39;3.55;;;1.70;;
15952;SDS011;8075;47.766;8.846;2023-07-13T09:36:16;2.70;;;1.80;;
15952;SDS011;8075;47.766;8.846;2023-07-13T09:38:43;2.75;;;1.80;;
15952;SDS011;8075;47.766;8.846;2023-07-13T09:41:18;3.22;;;1.88;;
15952;SDS011;8075;47.766;8.846;2023-07-13T09:46:30;4.25;;;2.20;;
15952;SDS011;8075;47.766;8.846;2023-07-13T09:48:56;2.25;;;1.60;;
15952;SDS011;8075;47.766;8.846;2023-07-13T09:51:22;4.07;;;1.67;;
15952;SDS011;8075;47.766;8.846;2023-07-13T09:53:48;2.05;;;1.50;;
15952;SDS011;8075;47.766;8.846;2023-07-13T09:56:22;3.80;;;1.80;;
15952;SDS011;8075;47.766;8.846;2023-07-13T09:58:48;2.78;;;2.05;;
15952;SDS011;8075;47.766;8.846;2023-07-13T10:01:30;2.28;;;2.08;;
15952;SDS011;8075;47.766;8.846;2023-07-13T10:03:57;3.50;;;1.90;;
15952;SDS011;8075;47.766;8.846;2023-07-13T10:06:23;2.92;;;1.70;;
15952;SDS011;8075;47.766;8.846;2023-07-13T10:08:51;2.00;;;1.70;;
15952;SDS011;8075;47.766;8.846;2023-07-13T10:13:53;3.15;;;1.80;;
15952;SDS011;8075;47.766;8.846;2023-07-13T10:16:21;2.55;;;1.60;;
15952;SDS011;8075;47.766;8.846;2023-07-13T10:18:55;2.00;;;1.35;;
15952;SDS011;8075;47.766;8.846;2023-07-13T10:21:23;3.33;;;1.42;;
15952;SDS011;8075;47.766;8.846;2023-07-13T10:23:54;1.40;;;1.30;;
15952;SDS011;8075;47.766;8.846;2023-07-13T10:26:22;2.42;;;1.40;;
15952;SDS011;8075;47.766;8.846;2023-07-13T10:28:51;1.63;;;1.20;;
15952;SDS011;8075;47.766;8.846;2023-07-13T10:31:18;2.67;;;1.42;;
15952;SDS011;8075;47.766;8.846;2023-07-13T10:33:44;2.00;;;1.15;;
15952;SDS011;8075;47.766;8.846;2023-07-13T10:36:14;4.90;;;1.33;;
15952;SDS011;8075;47.766;8.846;2023-07-13T10:38:42;2.97;;;1.42;;
15952;SDS011;8075;47.766;8.846;2023-07-13T10:41:14;2.15;;;1.40;;
15952;SDS011;8075;47.766;8.846;2023-07-13T10:43:47;3.58;;;1.10;;
15952;SDS011;8075;47.766;8.846;2023-07-13T10:46:16;2.85;;;1.48;;
15952;SDS011;8075;47.766;8.846;2023-07-13T10:48:43;2.50;;;1.48;;
15952;SDS011;8075;47.766;8.846;2023-07-13T10:51:10;2.80;;;1.50;;
15952;SDS011;8075;47.766;8.846;2023-07-13T10:53:37;1.90;;;1.23;;
15952;SDS011;8075;47.766;8.846;2023-07-13T10:58:42;2.35;;;1.17;;
15952;SDS011;8075;47.766;8.846;2023-07-13T11:01:10;2.50;;;1.50;;
15952;SDS011;8075;47.766;8.846;2023-07-13T11:03:38;3.53;;;1.63;;
15952;SDS011;8075;47.766;8.846;2023-07-13T11:06:13;1.25;;;1.15;;
15952;SDS011;8075;47.766;8.846;2023-07-13T11:13:58;2.22;;;1.50;;
15952;SDS011;8075;47.766;8.846;2023-07-13T11:16:33;2.38;;;1.50;;
15952;SDS011;8075;47.766;8.846;2023-07-13T11:21:31;1.70;;;1.40;;
15952;SDS011;8075;47.766;8.846;2023-07-13T11:24:33;5.45;;;1.40;;
15952;SDS011;8075;47.766;8.846;2023-07-13T11:26:50;1.88;;;1.50;;
15952;SDS011;8075;47.766;8.846;2023-07-13T11:31:43;3.97;;;2.95;;
15952;SDS011;8075;47.766;8.846;2023-07-13T11:34:16;2.85;;;1.52;;
15952;SDS011;8075;47.766;8.846;2023-07-13T11:36:44;2.47;;;1.60;;
15952;SDS011;8075;47.766;8.846;2023-07-13T11:39:12;2.78;;;1.50;;
15952;SDS011;8075;47.766;8.846;2023-07-13T11:42:00;2.17;;;1.30;;
15952;SDS011;8075;47.766;8.846;2023-07-13T11:44:28;3.97;;;1.40;;
15952;SDS011;8075;47.766;8.846;2023-07-13T11:46:55;2.15;;;1.23;;
15952;SDS011;8075;47.766;8.846;2023-07-13T11:49:25;2.23;;;1.53;;
15952;SDS011;8075;47.766;8.846;2023-07-13T11:51:54;4.28;;;1.60;;
15952;SDS011;8075;47.766;8.846;2023-07-13T11:54:33;2.72;;;1.55;;
15952;SDS011;8075;47.766;8.846;2023-07-13T11:57:01;2.00;;;1.30;;
15952;SDS011;8075;47.766;8.846;2023-07-13T11:59:31;1.52;;;1.30;;
15952;SDS011;8075;47.766;8.846;2023-07-13T12:01:58;3.33;;;1.60;;
15952;SDS011;8075;47.766;8.846;2023-07-13T12:04:28;2.27;;;1.70;;
15952;SDS011;8075;47.766;8.846;2023-07-13T12:07:14;1.73;;;1.40;;
15952;SDS011;8075;47.766;8.846;2023-07-13T12:09:40;2.23;;;1.33;;
15952;SDS011;8075;47.766;8.846;2023-07-13T12:12:13;3.67;;;1.90;;
15952;SDS011;8075;47.766;8.846;2023-07-13T12:14:40;2.80;;;1.73;;
15952;SDS011;8075;47.766;8.846;2023-07-13T12:17:24;3.13;;;2.50;;
15952;SDS011;8075;47.766;8.846;2023-07-13T12:19:51;3.92;;;3.03;;
15952;SDS011;8075;47.766;8.846;2023-07-13T12:22:18;7.65;;;3.47;;
15952;SDS011;8075;47.766;8.846;2023-07-13T12:24:45;3.70;;;2.60;;
15952;SDS011;8075;47.766;8.846;2023-07-13T12:27:22;3.42;;;2.25;;
15952;SDS011;8075;47.766;8.846;2023-07-13T12:29:59;3.38;;;2.20;;
15952;SDS011;8075;47.766;8.846;2023-07-13T12:32:26;1.88;;;1.58;;
15952;SDS011;8075;47.766;8.846;2023-07-13T12:34:53;3.03;;;1.50;;
15952;SDS011;8075;47.766;8.846;2023-07-13T12:37:20;6.55;;;3.80;;
15952;SDS011;8075;47.766;8.846;2023-07-13T12:39:47;3.08;;;2.13;;
15952;SDS011;8075;47.766;8.846;2023-07-13T12:44:42;3.45;;;2.60;;
15952;SDS011;8075;47.766;8.846;2023-07-13T12:47:10;2.75;;;2.00;;
15952;SDS011;8075;47.766;8.846;2023-07-13T12:49:40;2.25;;;1.60;;
15952;SDS011;8075;47.766;8.846;2023-07-13T12:52:17;2.70;;;1.40;;
15952;SDS011;8075;47.766;8.846;2023-07-13T12:54:52;2.00;;;1.50;;
15952;SDS011;8075;47.766;8.846;2023-07-13T12:57:18;2.47;;;1.60;;
15952;SDS011;8075;47.766;8.846;2023-07-13T12:59:44;2.95;;;1.55;;
15952;SDS011;8075;47.766;8.846;2023-07-13T13:02:29;1.63;;;1.35;;
15952;SDS011;8075;47.766;8.846;2023-07-13T13:04:56;2.65;;;1.65;;
15952;SDS011;8075;47.766;8.846;2023-07-13T13:07:23;3.50;;;1.50;;
15952;SDS011;8075;47.766;8.846;2023-07-13T13:09:49;1.50;;;1.20;;
15952;SDS011;8075;47.766;8.846;2023-07-13T13:12:15;2.03;;;1.38;;
15952;SDS011;8075;47.766;8.846;2023-07-13T13:14:42;3.05;;;1.40;;
15952;SDS011;8075;47.766;8.846;2023-07-13T13:17:16;3.63;;;1.35;;
15952;SDS011;8075;47.766;8.846;2023-07-13T13:19:44;1.52;;;1.15;;
15952;SDS011;8075;47.766;8.846;2023-07-13T13:22:10;1.77;;;1.42;;
15952;SDS011;8075;47.766;8.846;2023-07-13T13:24:37;2.83;;;1.57;;
15952;SDS011;8075;47.766;8.846;2023-07-13T13:27:03;2.17;;;1.43;;
15952;SDS011;8075;47.766;8.846;2023-07-13T13:29:30;5.27;;;2.80;;
15952;SDS011;8075;47.766;8.846;2023-07-13T13:31:57;5.18;;;3.10;;
15952;SDS011;8075;47.766;8.846;2023-07-13T13:34:24;3.88;;;3.40;;
15952;SDS011;8075;47.766;8.846;2023-07-13T13:36:51;3.85;;;2.42;;
15952;SDS011;8075;47.766;8.846;2023-07-13T13:39:25;3.10;;;2.30;;
15952;SDS011;8075;47.766;8.846;2023-07-13T13:41:53;2.75;;;1.88;;
15952;SDS011;8075;47.766;8.846;2023-07-13T13:44:20;2.67;;;1.50;;
15952;SDS011;8075;47.766;8.846;2023-07-13T13:46:47;2.70;;;1.60;;
15952;SDS011;8075;47.766;8.846;2023-07-13T13:49:15;2.30;;;1.30;;
15952;SDS011;8075;47.766;8.846;2023-07-13T13:51:42;3.60;;;1.58;;
15952;SDS011;8075;47.766;8.846;2023-07-13T13:54:12;3.15;;;2.50;;
15952;SDS011;8075;47.766;8.846;2023-07-13T13:56:39;3.22;;;2.83;;
15952;SDS011;8075;47.766;8.846;2023-07-13T13:59:05;3.67;;;1.60;;
15952;SDS011;8075;47.766;8.846;2023-07-13T14:01:33;1.60;;;0.90;;
15952;SDS011;8075;47.766;8.846;2023-07-13T14:03:59;1.70;;;0.95;;
15952;SDS011;8075;47.766;8.846;2023-07-13T14:06:25;2.25;;;1.00;;
15952;SDS011;8075;47.766;8.846;2023-07-13T14:08:52;2.67;;;1.00;;
15952;SDS011;8075;47.766;8.846;2023-07-13T14:11:20;9.75;;;5.80;;
15952;SDS011;8075;47.766;8.846;2023-07-13T14:13:51;2.38;;;1.20;;
15952;SDS011;8075;47.766;8.846;2023-07-13T14:16:19;3.53;;;1.10;;
15952;SDS011;8075;47.766;8.846;2023-07-13T14:18:46;1.55;;;0.95;;
15952;SDS011;8075;47.766;8.846;2023-07-13T14:21:16;2.20;;;0.90;;
15952;SDS011;8075;47.766;8.846;2023-07-13T14:23:43;2.78;;;2.00;;
15952;SDS011;8075;47.766;8.846;2023-07-13T14:26:11;9.00;;;5.10;;
15952;SDS011;8075;47.766;8.846;2023-07-13T14:28:37;6.53;;;4.22;;
15952;SDS011;8075;47.766;8.846;2023-07-13T14:31:04;3.95;;;2.08;;
15952;SDS011;8075;47.766;8.846;2023-07-13T14:33:31;1.88;;;0.80;;
15952;SDS011;8075;47.766;8.846;2023-07-13T14:35:56;2.35;;;0.70;;
15952;SDS011;8075;47.766;8.846;2023-07-13T14:38:23;1.38;;;0.70;;
15952;SDS011;8075;47.766;8.846;2023-07-13T14:40:49;1.77;;;0.60;;
15952;SDS011;8075;47.766;8.846;2023-07-13T14:43:15;1.25;;;0.80;;
15952;SDS011;8075;47.766;8.846;2023-07-13T14:45:48;1.38;;;0.60;;
15952;SDS011;8075;47.766;8.846;2023-07-13T14:48:16;0.70;;;0.50;;
15952;SDS011;8075;47.766;8.846;2023-07-13T14:50:43;2.42;;;1.00;;
15952;SDS011;8075;47.766;8.846;2023-07-13T14:53:11;1.77;;;1.02;;
15952;SDS011;8075;47.766;8.846;2023-07-13T14:55:38;1.65;;;0.90;;
15952;SDS011;8075;47.766;8.846;2023-07-13T14:58:04;1.50;;;1.00;;
15952;SDS011;8075;47.766;8.846;2023-07-13T15:00:30;1.95;;;1.00;;
15952;SDS011;8075;47.766;8.846;2023-07-13T15:02:56;0.77;;;0.70;;
15952;SDS011;8075;47.766;8.846;2023-07-13T15:05:24;1.45;;;0.65;;
15952;SDS011;8075;47.766;8.846;2023-07-13T15:07:51;1.23;;;0.80;;
15952;SDS011;8075;47.766;8.846;2023-07-13T15:10:22;1.80;;;0.80;;
15952;SDS011;8075;47.766;8.846;2023-07-13T15:12:50;1.90;;;1.00;;
15952;SDS011;8075;47.766;8.846;2023-07-13T15:15:16;1.60;;;0.60;;
15952;SDS011;8075;47.766;8.846;2023-07-13T15:17:46;2.43;;;0.80;;
15952;SDS011;8075;47.766;8.846;2023-07-13T15:22:41;1.40;;;0.98;;
15952;SDS011;8075;47.766;8.846;2023-07-13T15:25:11;1.40;;;1.10;;
15952;SDS011;8075;47.766;8.846;2023-07-13T15:27:39;2.77;;;1.20;;
15952;SDS011;8075;47.766;8.846;2023-07-13T15:30:06;3.10;;;1.30;;
15952;SDS011;8075;47.766;8.846;2023-07-13T15:32:32;3.13;;;1.10;;
15952;SDS011;8075;47.766;8.846;2023-07-13T15:35:00;2.00;;;1.30;;
15952;SDS011;8075;47.766;8.846;2023-07-13T15:37:26;1.10;;;0.90;;